Flight Track Log - Related Links

Times and Time Zones

All times are in EDT time to prevent confusion due to time zone crossing. See the QXE426 flight status page for this flight to view local times or setup timezone preferences in your user account.

Time Position Orientation Groundspeed Altitude Reporting Facility
EDT Latitude Longitude Course Direction KTS MPH feet Rate Location/Type
Wed 05:40:04 PM 47.4364 -122.3064 161° South 148 170 1,400  Level Seattle Center
Wed 05:40:53 PM 47.4058 -122.2906 103° East 174 200 2,300 1,200 Climbing Seattle Center
Wed 05:41:54 PM 47.3908 -122.1972 92° East 236 272 3,600 1,286 Climbing Seattle Center
Wed 05:42:31 PM 47.3897 -122.1431 97° East 248 285 4,400 1,469 Climbing Seattle Center
Wed 05:43:32 PM 47.3811 -122.0383 107° East 259 298 6,000 1,475 Climbing Seattle Center
Wed 05:44:33 PM 47.3600 -121.9353 109° East 269 310 7,400 1,561 Climbing Seattle Center
Wed 05:45:35 PM 47.3367 -121.8344 108° East 265 305 9,200 1,854 Climbing Seattle Center
Wed 05:46:36 PM 47.3097 -121.7150 110° East 261 300 11,200 1,869 Climbing Seattle Center
Wed 05:47:37 PM 47.2856 -121.6172 109° East 258 297 13,000 1,623 Climbing Seattle Center
Wed 05:48:38 PM 47.2631 -121.5183 108° East 258 297 14,500 1,475 Climbing Seattle Center
Wed 05:49:39 PM 47.2417 -121.4194 108° East 257 296 16,000 1,328 Climbing Seattle Center
Wed 05:50:40 PM 47.2197 -121.3194 109° East 259 298 17,200 1,180 Climbing Seattle Center
Wed 05:51:41 PM 47.1958 -121.2164 109° East 266 306 18,400 1,033 Climbing Seattle Center
Wed 05:52:42 PM 47.1706 -121.1058 108° East 287 330 19,300 1,073 Climbing Seattle Center
Wed 05:53:44 PM 47.1414 -120.9706 119° Southeast 291 335 20,600 1,171 Climbing Seattle Center
Wed 05:54:45 PM 47.1064 -120.8794 152° Southeast 266 306 21,700 984 Climbing Seattle Center
Wed 05:55:46 PM 47.0503 -120.8353 152° Southeast 234 269 22,600 639 Climbing Seattle Center
Wed 05:56:47 PM 46.9956 -120.7922 150° Southeast 231 266 23,000 197 Climbing Seattle Center
Wed 05:57:48 PM 46.9353 -120.7406 151° Southeast 248 285 23,000  Level Seattle Center
Wed 05:58:49 PM 46.8694 -120.6864 151° Southeast 273 314 23,000  Level Seattle Center
Wed 05:59:50 PM 46.8003 -120.6303 151° Southeast 282 325 23,000  Level Seattle Center
Wed 06:00:52 PM 46.7153 -120.5622 150° Southeast 291 335 23,000  Level Seattle Center
Wed 06:01:53 PM 46.6428 -120.5008 152° Southeast 300 345 23,000  Level Seattle Center
Wed 06:02:54 PM 46.5700 -120.4447 130° Southeast 299 344 23,000  Level Seattle Center
Wed 06:03:55 PM 46.5147 -120.3483 128° Southeast 317 365 23,000  Level Seattle Center
Wed 06:04:56 PM 46.4603 -120.2486 130° Southeast 320 368 23,000  Level Seattle Center
Wed 06:05:58 PM 46.4050 -120.1533 130° Southeast 315 362 23,000  Level Seattle Center
Wed 06:06:59 PM 46.3492 -120.0556 130° Southeast 316 364 23,000  Level Seattle Center
Wed 06:08:00 PM 46.2939 -119.9586 130° Southeast 315 362 23,000  Level Seattle Center
Wed 06:09:01 PM 46.2264 -119.8425 130° Southeast 316 364 23,000  Level Seattle Center
Wed 06:10:03 PM 46.1722 -119.7481 130° Southeast 311 358 23,000  Level Seattle Center
Wed 06:11:04 PM 46.1161 -119.6500 130° Southeast 314 361 23,000  Level Seattle Center
Wed 06:12:05 PM 46.0592 -119.5533 130° Southeast 317 365 23,000  Level Seattle Center
Wed 06:13:06 PM 46.0022 -119.4556 130° Southeast 318 366 23,000  Level Seattle Center
Wed 06:14:07 PM 45.9450 -119.3589 130° Southeast 320 368 23,000  Level Seattle Center
Wed 06:15:09 PM 45.8892 -119.2622 130° Southeast 317 365 23,000  Level Seattle Center
Wed 06:16:10 PM 45.8328 -119.1667 131° Southeast 316 364 23,000  Level Seattle Center
Wed 06:17:11 PM 45.7758 -119.0722 130° Southeast 315 362 23,000  Level Seattle Center
Wed 06:18:12 PM 45.7092 -118.9581 135° Southeast 313 360 23,000  Level Seattle Center
Wed 06:19:13 PM 45.6492 -118.8717 138° Southeast 309 356 23,000  Level Seattle Center
Wed 06:20:15 PM 45.5861 -118.7908 137° Southeast 305 351 23,000  Level Seattle Center
Wed 06:21:16 PM 45.5239 -118.7078 136° Southeast 307 353 23,000  Level Seattle Center
Wed 06:22:17 PM 45.4625 -118.6233 138° Southeast 308 354 23,000  Level Seattle Center
Wed 06:23:19 PM 45.3989 -118.5406 137° Southeast 310 357 23,000  Level Seattle Center
Wed 06:24:20 PM 45.3361 -118.4561 137° Southeast 311 358 23,000  Level Seattle Center
Wed 06:25:21 PM 45.2722 -118.3728 137° Southeast 312 359 23,000  Level Seattle Center
Wed 06:26:22 PM 45.1958 -118.2722 137° Southeast 314 361 23,000  Level Seattle Center
Wed 06:27:24 PM 45.1322 -118.1875 137° Southeast 315 362 23,000  Level Seattle Center
Wed 06:28:25 PM 45.0686 -118.1047 137° Southeast 314 361 23,000  Level Seattle Center
Wed 06:29:26 PM 45.0067 -118.0239 138° Southeast 315 362 23,000  Level Seattle Center
Wed 06:30:28 PM 44.9333 -117.9294 137° Southeast 318 366 23,000  Level Seattle Center
Wed 06:31:29 PM 44.8722 -117.8483 138° Southeast 317 365 23,000  Level Seattle Center
Wed 06:32:30 PM 44.7983 -117.7547 138° Southeast 319 367 23,000  Level Seattle Center
Wed 06:33:32 PM 44.7347 -117.6731 138° Southeast 322 371 23,000  Level Seattle Center
Wed 06:34:33 PM 44.6711 -117.5917 137° Southeast 323 372 23,000  Level Seattle Center
Wed 06:35:34 PM 44.5983 -117.4978 142° Southeast 320 368 23,000  Level Seattle Center
Wed 06:36:36 PM 44.5300 -117.4236 151° Southeast 324 373 23,000  Level Seattle Center
Wed 06:37:37 PM 44.4469 -117.3592 151° Southeast 314 361 23,000 -197 Level Seattle Center
Wed 06:38:38 PM 44.3753 -117.3044 150° Southeast 310 357 22,600 -885 Descending Seattle Center
Wed 06:39:39 PM 44.3000 -117.2436 151° Southeast 320 368 21,200 -1,510 Descending Seattle Center
Wed 06:41:09 PM 44.1725 -117.1442 150° Southeast 325 374 18,800 -1,550 Descending Salt Lake Center
Wed 06:42:10 PM 44.0961 -117.0833 151° Southeast 329 379 17,300 -1,512 Descending Salt Lake Center
Wed 06:43:12 PM 44.0086 -117.0147 151° Southeast 326 375 15,700 -1,452 Descending Salt Lake Center
Wed 06:44:14 PM 43.9328 -116.9553 151° Southeast 328 377 14,300 -1,306 Descending Salt Lake Center
Wed 06:45:16 PM 43.8467 -116.8894 150° Southeast 318 366 13,000 -683 Descending Salt Lake Center
Wed 06:46:17 PM 43.7778 -116.8344 128° Southeast 303 349 12,900 -927 Descending Salt Lake Center
Wed 06:47:19 PM 43.7325 -116.7536 111° Southeast 286 329 11,100 -1,887 Descending Salt Lake Center
Wed 06:48:21 PM 43.7011 -116.6386 114° Southeast 284 327 9,000 -1,854 Descending Salt Lake Center
Wed 06:49:22 PM 43.6711 -116.5467 113° Southeast 277 319 7,300 -1,317 Descending Salt Lake Center
Wed 06:50:24 PM 43.6428 -116.4536 116° Southeast 238 274 6,300 -1,161 Descending Salt Lake Center
Wed 06:51:26 PM 43.6172 -116.3806 115° Southeast 202 232 4,900 -1,122 Descending Salt Lake Center
Wed 06:52:27 PM 43.5961 -116.3192 112° Southeast 188 216 4,000 -732 Descending Salt Lake Center
Wed 06:53:29 PM 43.5811 -116.2667 114° Southeast 156 180 3,400 -387 Descending Salt Lake Center
Wed 06:54:31 PM 43.5633 -116.2128 114° Southeast 152 175 3,200 -194 Descending Salt Lake Center

Login

Don't have an account? Register now (free) for customized features, flight alerts, and more!